Time;durP1;ratioP1;P1;durP2;ratioP2;P2;SDS_P1;SDS_P2;PMS_P1;PMS_P2;Temp;Humidity;BMP_temperature;BMP_pressure;BME280_temperature;BME280_humidity;BME280_pressure;Samples;Min_cycle;Max_cycle;Signal;HPM_P1;HPM_P2
2021/04/29 00:02:06;;;;;;;28.77;22.35;;;332.80;2329.60;;;;;;5016538;28;20402;-77
2021/04/29 00:04:32;;;;;;;27.60;21.13;;;332.80;2329.60;;;;;;5017761;28;20336;-78
2021/04/29 00:06:58;;;;;;;30.27;21.45;;;332.80;2329.60;;;;;;5016380;28;20422;-86
2021/04/29 00:09:25;;;;;;;27.23;21.90;;;332.80;2329.60;;;;;;5017438;28;20394;-86
2021/04/29 00:11:51;;;;;;;25.48;20.00;;;332.80;2329.60;;;;;;5017592;28;20406;-77
2021/04/29 00:14:18;;;;;;;27.65;20.98;;;308.10;2304.00;;;;;;5017131;28;20029;-77
2021/04/29 00:16:44;;;;;;;26.75;21.00;;;308.10;2304.00;;;;;;5016058;28;20477;-79
2021/04/29 00:19:10;;;;;;;28.30;21.05;;;308.10;2304.00;;;;;;5017173;28;20484;-78
2021/04/29 00:21:37;;;;;;;27.30;20.45;;;308.00;2304.00;;;;;;5017286;28;20473;-77
2021/04/29 00:24:05;;;;;;;26.52;19.95;;;308.10;2304.00;;;;;;5017152;28;20367;-78
2021/04/29 00:26:31;;;;;;;25.40;19.17;;;308.00;2304.00;;;;;;5015759;28;20360;-78
2021/04/29 00:28:57;;;;;;;26.85;19.58;;;307.90;2304.00;;;;;;5017115;28;20370;-78
2021/04/29 00:31:24;;;;;;;23.05;18.92;;;307.90;2304.00;;;;;;5015658;28;20459;-77
2021/04/29 00:33:50;;;;;;;24.17;19.27;;;307.90;2304.00;;;;;;5015636;28;20494;-78
2021/04/29 00:36:16;;;;;;;27.10;18.80;;;307.90;2304.00;;;;;;5016844;28;20386;-78
2021/04/29 00:38:43;;;;;;;23.92;19.23;;;307.90;2304.00;;;;;;5015508;28;20558;-77
2021/04/29 00:41:09;;;;;;;21.27;18.90;;;307.80;2304.00;;;;;;5015669;28;20482;-78
2021/04/29 00:43:35;;;;;;;23.90;17.45;;;307.80;2304.00;;;;;;5015948;28;20379;-82
2021/04/29 00:46:03;;;;;;;23.85;17.45;;;307.90;2304.00;;;;;;5015805;28;20440;-80
2021/04/29 00:48:29;;;;;;;27.17;19.33;;;307.90;2304.00;;;;;;5016992;28;20394;-86
2021/04/29 00:50:56;;;;;;;22.25;18.40;;;307.90;2304.00;;;;;;5015936;28;20453;-81
2021/04/29 00:53:42;;;;;;;25.35;17.23;;;307.80;2304.00;;;;;;5016732;28;20348;-81
2021/04/29 00:56:08;;;;;;;24.08;17.58;;;307.80;2304.00;;;;;;5015705;28;20352;-78
2021/04/29 00:58:35;;;;;;;22.75;18.17;;;307.70;2304.00;;;;;;5015325;28;20025;-78
2021/04/29 01:01:03;;;;;;;20.65;16.80;;;307.70;2304.00;;;;;;5016342;28;20450;-82
2021/04/29 01:03:39;;;;;;;21.42;16.80;;;307.70;2304.00;;;;;;5014985;28;20398;-79
2021/04/29 01:06:12;;;;;;;20.15;16.73;;;307.70;2304.00;;;;;;5016338;28;20371;-79
2021/04/29 01:09:04;;;;;;;25.55;17.90;;;307.70;2304.00;;;;;;5014929;28;20375;-77
2021/04/29 01:11:36;;;;;;;27.52;18.55;;;307.70;2304.00;;;;;;5009399;28;20364;-77
2021/04/29 01:14:05;;;;;;;23.75;16.85;;;307.70;2304.00;;;;;;5014776;28;20371;-76
2021/04/29 01:16:33;;;;;;;22.30;16.33;;;307.70;2304.00;;;;;;5016051;28;20374;-76
2021/04/29 01:19:01;;;;;;;23.02;16.00;;;307.70;2304.00;;;;;;5015920;28;20422;-76
2021/04/29 01:21:29;;;;;;;20.73;16.05;;;307.70;2304.00;;;;;;5014752;28;20377;-76
2021/04/29 01:24:11;;;;;;;20.08;15.90;;;307.70;2304.00;;;;;;5014603;28;20348;-76
2021/04/29 01:26:52;;;;;;;21.20;16.45;;;307.70;2304.00;;;;;;5030132;28;20414;-78
2021/04/29 01:29:24;;;;;;;20.65;15.13;;;307.70;2304.00;;;;;;5017768;28;20477;-78
2021/04/29 01:31:52;;;;;;;18.67;16.10;;;307.60;2304.00;;;;;;5035824;28;20370;-77
2021/04/29 01:34:21;;;;;;;20.63;16.05;;;307.70;2304.00;;;;;;5017793;28;20461;-78
2021/04/29 01:36:50;;;;;;;22.60;15.90;;;307.70;2304.00;;;;;;5017801;28;20381;-79
2021/04/29 01:39:17;;;;;;;19.40;15.05;;;307.70;2304.00;;;;;;5035391;28;20369;-78
2021/04/29 01:41:49;;;;;;;20.17;15.45;;;307.70;2304.00;;;;;;5017607;28;20535;-77
2021/04/29 01:44:18;;;;;;;19.75;15.07;;;307.70;2304.00;;;;;;5035610;28;20379;-79
2021/04/29 01:46:45;;;;;;;18.88;14.00;;;307.70;2304.00;;;;;;5035233;28;20381;-79
2021/04/29 01:49:12;;;;;;;17.70;14.15;;;307.70;2304.00;;;;;;5017444;28;20365;-78
2021/04/29 01:51:40;;;;;;;16.80;13.55;;;307.70;2304.00;;;;;;5035147;28;20389;-77
2021/04/29 01:54:08;;;;;;;18.20;15.10;;;307.70;2304.00;;;;;;5017286;28;20423;-77
2021/04/29 01:56:36;;;;;;;19.88;14.05;;;307.70;2304.00;;;;;;5034988;28;20369;-78
2021/04/29 01:59:04;;;;;;;15.63;12.50;;;307.70;2304.00;;;;;;5017232;28;20489;-79
2021/04/29 02:01:31;;;;;;;18.85;13.05;;;307.70;2304.00;;;;;;5035050;28;20516;-77
2021/04/29 02:03:57;;;;;;;17.55;12.82;;;307.70;2304.00;;;;;;5034958;28;20362;-78
2021/04/29 02:06:23;;;;;;;16.00;12.70;;;307.70;2304.00;;;;;;5035269;28;20450;-77
2021/04/29 02:08:50;;;;;;;21.10;12.45;;;307.80;2304.00;;;;;;5017887;28;20393;-80
2021/04/29 02:11:16;;;;;;;15.90;11.63;;;307.80;2278.40;;;;;;5017004;28;20378;-77
2021/04/29 02:13:46;;;;;;;19.73;12.23;;;307.80;2278.40;;;;;;5017145;28;20549;-77
2021/04/29 02:16:24;;;;;;;16.45;11.00;;;307.70;2278.40;;;;;;5017123;28;20504;-79
2021/04/29 02:18:52;;;;;;;16.35;11.38;;;307.70;2278.40;;;;;;5016420;28;20420;-78
2021/04/29 02:21:20;;;;;;;17.50;10.43;;;307.70;2278.40;;;;;;5034614;28;20358;-77
2021/04/29 02:23:48;;;;;;;13.68;10.43;;;307.70;2278.40;;;;;;5034509;28;20401;-79
2021/04/29 02:26:18;;;;;;;13.63;10.07;;;307.70;2278.40;;;;;;5034198;28;20037;-78
2021/04/29 02:28:45;;;;;;;13.50;10.13;;;307.70;2278.40;;;;;;5034678;28;20323;-78
2021/04/29 02:31:12;;;;;;;12.85;10.25;;;307.90;2252.80;;;;;;5034425;28;20521;-77
2021/04/29 02:33:38;;;;;;;14.85;10.40;;;307.90;2252.80;;;;;;5016642;28;20347;-77
2021/04/29 02:36:06;;;;;;;14.05;10.73;;;307.90;2252.80;;;;;;5034328;28;20445;-77
2021/04/29 02:38:35;;;;;;;16.40;10.07;;;307.90;2252.80;;;;;;5016700;28;20450;-77
2021/04/29 02:41:03;;;;;;;13.48;9.80;;;307.90;2252.80;;;;;;5034212;28;20418;-77
2021/04/29 02:43:29;;;;;;;14.38;10.35;;;307.90;2252.80;;;;;;5034103;28;20371;-77
2021/04/29 02:45:56;;;;;;;16.00;10.98;;;307.80;2252.80;;;;;;5016487;28;20401;-77
2021/04/29 02:48:22;;;;;;;16.83;11.02;;;307.70;2252.80;;;;;;5016431;28;20361;-79
2021/04/29 02:50:49;;;;;;;12.32;10.32;;;307.70;2252.80;;;;;;5034077;28;20362;-77
2021/04/29 02:53:17;;;;;;;12.95;9.25;;;307.80;2252.80;;;;;;5033951;28;20351;-77
2021/04/29 02:55:44;;;;;;;13.77;10.43;;;307.80;2227.20;;;;;;5033849;28;20370;-78
2021/04/29 02:58:14;;;;;;;13.30;9.70;;;307.70;2252.80;;;;;;5016221;28;20411;-78
2021/04/29 03:00:41;;;;;;;15.57;10.30;;;307.70;2252.80;;;;;;5016249;28;20497;-77
2021/04/29 03:03:08;;;;;;;13.63;10.35;;;307.70;2252.80;;;;;;5033774;28;20358;-77
2021/04/29 03:05:35;;;;;;;15.60;9.82;;;307.70;2227.20;;;;;;5016154;28;20018;-79
2021/04/29 03:08:02;;;;;;;17.17;10.73;;;307.70;2227.20;;;;;;5033724;28;20366;-79
2021/04/29 03:10:28;;;;;;;14.45;10.90;;;307.60;2227.20;;;;;;5033800;28;20406;-77
2021/04/29 03:12:54;;;;;;;14.80;10.48;;;307.70;2227.20;;;;;;5016072;28;20532;-78
2021/04/29 03:15:21;;;;;;;12.18;9.30;;;307.70;2227.20;;;;;;5033721;28;20402;-79
2021/04/29 03:17:47;;;;;;;18.27;10.40;;;307.70;2227.20;;;;;;5033884;28;20402;-78
2021/04/29 03:20:14;;;;;;;14.20;9.98;;;307.70;2227.20;;;;;;5015912;28;20385;-78
2021/04/29 03:22:40;;;;;;;13.05;9.60;;;307.70;2227.20;;;;;;5015940;28;20357;-83
2021/04/29 03:25:06;;;;;;;14.85;11.18;;;307.70;2201.60;;;;;;5033645;28;20423;-80
2021/04/29 03:27:33;;;;;;;19.30;11.95;;;307.60;2227.20;;;;;;5015995;28;20485;-77
2021/04/29 03:29:59;;;;;;;17.00;11.82;;;307.50;2201.60;;;;;;5015676;28;20405;-78
2021/04/29 03:32:25;;;;;;;18.48;10.98;;;307.60;2227.20;;;;;;5015609;28;20578;-80
2021/04/29 03:34:52;;;;;;;15.77;10.02;;;307.60;2227.20;;;;;;5015692;28;20537;-78
2021/04/29 03:37:18;;;;;;;17.38;10.10;;;307.60;2201.60;;;;;;5015631;28;20044;-78
2021/04/29 03:39:45;;;;;;;13.80;9.98;;;307.70;2201.60;;;;;;5033438;28;20465;-78
2021/04/29 03:42:11;;;;;;;13.88;9.80;;;307.70;2201.60;;;;;;5015617;28;20463;-79
2021/04/29 03:44:39;;;;;;;13.35;9.48;;;307.50;2227.20;;;;;;5033371;28;20462;-78
2021/04/29 03:47:06;;;;;;;13.18;9.55;;;307.50;2227.20;;;;;;5015867;28;20474;-78
2021/04/29 03:49:33;;;;;;;12.07;9.20;;;307.40;2252.80;;;;;;5015554;28;20488;-79
2021/04/29 03:51:59;;;;;;;12.95;9.07;;;307.40;2252.80;;;;;;5015744;28;20365;-78
2021/04/29 03:54:26;;;;;;;15.38;9.90;;;307.40;2252.80;;;;;;5033353;28;20366;-79
2021/04/29 03:56:52;;;;;;;13.68;10.43;;;307.40;2252.80;;;;;;5033280;28;20469;-78
2021/04/29 03:59:19;;;;;;;13.52;10.65;;;307.40;2252.80;;;;;;5015664;28;20370;-78
2021/04/29 04:01:45;;;;;;;12.15;9.50;;;307.40;2252.80;;;;;;5033414;28;20358;-78
2021/04/29 04:04:11;;;;;;;19.27;12.18;;;307.50;2252.80;;;;;;5033259;28;20477;-77
2021/04/29 04:06:37;;;;;;;17.50;12.25;;;307.50;2227.20;;;;;;5033110;28;20052;-79
2021/04/29 04:09:04;;;;;;;17.80;12.25;;;307.50;2227.20;;;;;;5015441;28;20331;-77
2021/04/29 04:11:30;;;;;;;13.27;10.35;;;307.50;2227.20;;;;;;5033173;28;20370;-77
2021/04/29 04:13:57;;;;;;;12.75;9.80;;;307.50;2252.80;;;;;;5032586;28;20462;-77
2021/04/29 04:16:25;;;;;;;14.82;9.98;;;307.40;2252.80;;;;;;5033093;28;20538;-78
2021/04/29 04:18:51;;;;;;;13.40;10.32;;;307.30;2278.40;;;;;;5015742;28;20462;-78
2021/04/29 04:21:17;;;;;;;10.38;9.13;;;307.40;2252.80;;;;;;5033344;28;20433;-78
2021/04/29 04:23:44;;;;;;;11.60;9.35;;;307.40;2252.80;;;;;;5032974;28;20390;-79
2021/04/29 04:26:10;;;;;;;10.10;9.10;;;307.40;2278.40;;;;;;5015175;28;20414;-77
2021/04/29 04:28:36;;;;;;;13.05;10.23;;;307.40;2252.80;;;;;;5015231;28;20485;-78
2021/04/29 04:31:02;;;;;;;10.10;9.00;;;307.40;2278.40;;;;;;5032876;28;20370;-78
2021/04/29 04:33:28;;;;;;;13.52;10.27;;;307.50;2278.40;;;;;;5015176;28;20458;-77
2021/04/29 04:35:54;;;;;;;12.60;9.63;;;307.30;2278.40;;;;;;5015211;28;20021;-78
2021/04/29 04:38:20;;;;;;;14.25;10.90;;;307.40;2278.40;;;;;;5015114;28;20394;-78
2021/04/29 04:40:46;;;;;;;13.60;10.73;;;307.40;2278.40;;;;;;5015168;28;20025;-80
2021/04/29 04:43:12;;;;;;;13.82;10.48;;;307.50;2278.40;;;;;;5018020;28;20445;-77
2021/04/29 04:45:43;;;;;;;13.95;10.88;;;307.50;2278.40;;;;;;5018821;28;20386;-77
2021/04/29 04:48:10;;;;;;;14.30;10.65;;;307.50;2278.40;;;;;;5018755;28;20462;-78
2021/04/29 04:50:37;;;;;;;12.13;10.23;;;307.60;2278.40;;;;;;5036486;28;20469;-78
2021/04/29 04:53:04;;;;;;;15.15;11.23;;;307.60;2278.40;;;;;;5036500;28;20391;-78
2021/04/29 04:55:30;;;;;;;14.55;11.90;;;307.60;2278.40;;;;;;5018511;28;20466;-78
2021/04/29 04:57:57;;;;;;;15.15;11.23;;;307.60;2278.40;;;;;;5018555;28;20477;-77
2021/04/29 05:00:23;;;;;;;14.27;11.35;;;307.70;2278.40;;;;;;5018485;28;20026;-78
2021/04/29 05:02:50;;;;;;;15.23;12.00;;;307.80;2252.80;;;;;;5018682;28;20437;-78
2021/04/29 05:05:16;;;;;;;14.75;12.40;;;307.80;2252.80;;;;;;5036110;28;20458;-79
2021/04/29 05:07:42;;;;;;;17.08;12.90;;;307.80;2252.80;;;;;;5018279;28;20450;-77
2021/04/29 05:10:09;;;;;;;16.58;13.00;;;307.80;2278.40;;;;;;5035942;28;20437;-77
2021/04/29 05:12:36;;;;;;;17.67;14.93;;;307.90;2252.80;;;;;;5036071;28;20323;-76
2021/04/29 05:15:03;;;;;;;22.70;17.08;;;307.90;2252.80;;;;;;5035876;28;20440;-77
2021/04/29 05:17:29;;;;;;;18.88;15.10;;;307.90;2252.80;;;;;;5035690;28;20454;-78
2021/04/29 05:19:55;;;;;;;20.73;12.57;;;308.00;2252.80;;;;;;5035744;28;20466;-77
2021/04/29 05:22:22;;;;;;;21.35;14.48;;;308.00;2252.80;;;;;;5035719;28;20473;-77
2021/04/29 05:24:48;;;;;;;19.15;14.70;;;307.90;2252.80;;;;;;5017887;28;20370;-77
2021/04/29 05:27:14;;;;;;;18.13;14.07;;;307.90;2278.40;;;;;;5017729;28;20506;-77
2021/04/29 05:29:40;;;;;;;22.35;15.05;;;307.90;2278.40;;;;;;5017782;28;20519;-77
2021/04/29 05:32:06;;;;;;;23.20;15.77;;;307.90;2278.40;;;;;;5018028;28;20397;-77
2021/04/29 05:34:33;;;;;;;19.10;14.40;;;307.90;2278.40;;;;;;5017523;28;20382;-77
2021/04/29 05:36:59;;;;;;;21.40;14.88;;;308.00;2278.40;;;;;;5017785;28;20431;-77
2021/04/29 05:39:25;;;;;;;20.77;14.45;;;308.10;2278.40;;;;;;5035518;28;20453;-79
2021/04/29 05:41:51;;;;;;;19.35;14.93;;;308.10;2278.40;;;;;;5017695;28;20392;-77
2021/04/29 05:44:17;;;;;;;29.45;19.15;;;332.80;2278.40;;;;;;5017854;28;20456;-77
2021/04/29 05:46:44;;;;;;;28.85;19.10;;;332.90;2278.40;;;;;;5035273;28;20505;-77
2021/04/29 05:49:10;;;;;;;22.13;14.52;;;333.00;2278.40;;;;;;5035206;28;20462;-77
2021/04/29 05:51:36;;;;;;;19.70;14.25;;;333.10;2278.40;;;;;;5017468;28;20373;-77
2021/04/29 05:54:02;;;;;;;18.33;14.88;;;333.10;2278.40;;;;;;5016818;28;20362;-84
2021/04/29 05:56:28;;;;;;;19.35;14.60;;;333.20;2278.40;;;;;;5017765;28;20385;-77
2021/04/29 05:58:54;;;;;;;19.38;14.43;;;333.30;2252.80;;;;;;5017532;28;20407;-77
2021/04/29 06:01:20;;;;;;;18.85;14.20;;;333.50;2252.80;;;;;;5017418;28;20451;-77
2021/04/29 06:03:48;;;;;;;19.95;15.48;;;333.50;2252.80;;;;;;5017163;28;20355;-80
2021/04/29 06:06:15;;;;;;;18.25;15.43;;;333.40;2252.80;;;;;;5017195;28;20028;-81
2021/04/29 06:08:41;;;;;;;20.63;16.58;;;333.50;2278.40;;;;;;5016990;28;20437;-77
2021/04/29 06:14:30;;;;;;;19.17;15.50;;;333.50;2278.40;;;;;;5034617;28;20056;-79
2021/04/29 06:16:56;;;;;;;25.77;18.92;;;333.60;2252.80;;;;;;5016902;28;20541;-80
2021/04/29 06:19:22;;;;;;;28.23;18.33;;;333.70;2252.80;;;;;;5035304;28;20052;-78
2021/04/29 06:21:48;;;;;;;21.95;16.52;;;358.40;2278.40;;;;;;5035030;28;20409;-85
2021/04/29 06:24:14;;;;;;;21.60;17.02;;;358.60;2227.20;;;;;;5017018;28;20393;-84
2021/04/29 06:26:41;;;;;;;22.10;16.92;;;358.50;2227.20;;;;;;5013556;28;20479;-77
2021/04/29 06:29:08;;;;;;;22.25;17.00;;;358.50;2252.80;;;;;;5014957;28;20370;-77
2021/04/29 06:31:36;;;;;;;23.98;17.33;;;358.60;2252.80;;;;;;5013536;28;20371;-78
2021/04/29 06:34:04;;;;;;;23.50;16.92;;;358.60;2227.20;;;;;;5013502;28;20030;-78
2021/04/29 06:36:31;;;;;;;21.77;17.15;;;358.60;2227.20;;;;;;5013320;28;20375;-77
2021/04/29 06:38:57;;;;;;;23.95;17.95;;;358.60;2227.20;;;;;;5013533;28;20525;-79
2021/04/29 06:41:23;;;;;;;24.77;16.55;;;358.60;2227.20;;;;;;5014770;28;20371;-82
2021/04/29 06:43:49;;;;;;;23.77;17.17;;;358.70;2227.20;;;;;;5013376;28;20014;-82
2021/04/29 06:46:15;;;;;;;21.30;16.08;;;358.80;2201.60;;;;;;5013418;28;20569;-82
2021/04/29 06:48:41;;;;;;;21.60;17.35;;;358.80;2201.60;;;;;;5013412;28;20351;-83
2021/04/29 06:51:08;;;;;;;21.90;17.33;;;358.90;2201.60;;;;;;5013075;28;20509;-82
2021/04/29 06:53:34;;;;;;;25.92;18.40;;;358.90;2201.60;;;;;;5013213;28;20526;-82
2021/04/29 06:56:00;;;;;;;22.50;18.17;;;359.00;2201.60;;;;;;5013269;28;20486;-84
2021/04/29 06:58:28;;;;;;;25.55;19.60;;;359.10;2176.00;;;;;;5013364;28;20418;-82
2021/04/29 07:00:54;;;;;;;25.00;18.40;;;359.10;2176.00;;;;;;5013042;28;20378;-76
2021/04/29 07:03:21;;;;;;;29.08;20.10;;;359.20;2201.60;;;;;;5013027;28;20517;-80
2021/04/29 07:05:47;;;;;;;24.23;18.23;;;359.30;2201.60;;;;;;5014282;28;20058;-82
2021/04/29 07:08:14;;;;;;;27.58;19.65;;;384.00;2176.00;;;;;;5014171;28;20375;-80
2021/04/29 07:10:40;;;;;;;26.27;19.10;;;384.00;2176.00;;;;;;5012867;28;20413;-80
2021/04/29 07:13:07;;;;;;;22.17;18.13;;;384.10;2176.00;;;;;;5012717;28;20525;-80
2021/04/29 07:15:33;;;;;;;22.35;18.05;;;384.10;2150.40;;;;;;5012637;28;20421;-82
2021/04/29 07:18:04;;;;;;;23.77;18.65;;;384.10;2201.60;;;;;;5012714;28;20033;-83
2021/04/29 07:20:34;;;;;;;28.90;20.90;;;384.20;2176.00;;;;;;5012847;28;20378;-83
2021/04/29 07:23:00;;;;;;;25.42;19.80;;;384.40;2150.40;;;;;;5013037;28;20348;-83
2021/04/29 07:25:27;;;;;;;22.40;18.20;;;384.60;2150.40;;;;;;5012615;28;20483;-80
2021/04/29 07:27:53;;;;;;;24.50;17.45;;;384.80;2124.80;;;;;;4994489;23;1351893;-73
2021/04/29 07:30:20;;;;;;;20.42;16.80;;;384.90;2099.20;;;;;;5033460;28;20037;-76
2021/04/29 07:32:46;;;;;;;20.60;17.15;;;409.60;2124.80;;;;;;5015426;28;20373;-75
2021/04/29 07:35:14;;;;;;;21.73;17.42;;;409.60;2124.80;;;;;;5015520;28;20497;-76
2021/04/29 07:37:40;;;;;;;19.98;17.25;;;409.70;2124.80;;;;;;5033518;28;20398;-76
2021/04/29 07:40:07;;;;;;;24.90;18.33;;;409.90;2124.80;;;;;;5033024;28;20378;-75
2021/04/29 07:42:33;;;;;;;20.95;17.13;;;410.00;2124.80;;;;;;5015253;28;20401;-76
2021/04/29 07:44:59;;;;;;;21.05;18.02;;;410.00;2099.20;;;;;;5033405;28;20343;-76
2021/04/29 07:47:27;;;;;;;19.10;17.10;;;410.00;2099.20;;;;;;5015691;28;20385;-73
2021/04/29 07:49:55;;;;;;;21.83;18.35;;;410.00;2073.60;;;;;;5015288;28;20466;-75
2021/04/29 07:52:21;;;;;;;30.83;18.17;;;410.00;2099.20;;;;;;5033331;28;20480;-72
2021/04/29 07:54:47;;;;;;;19.17;16.55;;;410.10;2099.20;;;;;;5033287;28;20160;-79
2021/04/29 07:57:14;;;;;;;20.25;17.85;;;410.10;2073.60;;;;;;5033031;28;20390;-76
2021/04/29 07:59:40;;;;;;;20.85;18.27;;;410.10;2073.60;;;;;;5032975;28;20357;-75
2021/04/29 08:02:06;;;;;;;19.67;17.58;;;410.00;2099.20;;;;;;5015233;28;20375;-75
2021/04/29 08:04:33;;;;;;;22.10;18.25;;;410.00;2099.20;;;;;;5033008;28;20374;-75
2021/04/29 08:06:59;;;;;;;22.75;19.23;;;410.00;2124.80;;;;;;5015215;28;20421;-76
2021/04/29 08:09:25;;;;;;;26.08;19.70;;;410.00;2124.80;;;;;;5032911;28;20026;-77
2021/04/29 08:11:52;;;;;;;24.40;19.65;;;410.10;2099.20;;;;;;5032930;28;20524;-77
2021/04/29 08:14:19;;;;;;;20.30;17.98;;;410.20;2124.80;;;;;;5015110;28;20448;-75
2021/04/29 08:16:45;;;;;;;23.27;18.80;;;410.30;2099.20;;;;;;5032890;28;20374;-75
2021/04/29 08:19:11;;;;;;;20.30;18.15;;;410.50;2099.20;;;;;;5036594;28;20520;-75
2021/04/29 08:21:37;;;;;;;29.63;23.92;;;435.20;2073.60;;;;;;5018806;28;20454;-75
2021/04/29 08:24:04;;;;;;;24.77;20.83;;;435.30;2099.20;;;;;;5036622;28;20025;-75
2021/04/29 08:26:30;;;;;;;28.95;20.80;;;435.60;2073.60;;;;;;5036289;28;20374;-77
2021/04/29 08:28:57;;;;;;;22.60;20.02;;;435.80;2048.00;;;;;;5036969;28;20522;-78
2021/04/29 08:31:23;;;;;;;21.02;18.83;;;436.00;2022.40;;;;;;5036474;28;20482;-76
2021/04/29 08:33:49;;;;;;;22.42;19.25;;;460.80;1996.80;;;;;;5036262;28;20374;-75
2021/04/29 08:36:18;;;;;;;22.17;19.88;;;460.90;1996.80;;;;;;5036459;28;20041;-75
2021/04/29 08:38:46;;;;;;;21.85;18.25;;;461.10;2022.40;;;;;;5037002;28;20019;-76
2021/04/29 08:41:15;;;;;;;30.05;21.23;;;461.10;2048.00;;;;;;5036373;28;20374;-76
2021/04/29 08:43:43;;;;;;;22.67;19.13;;;461.10;2022.40;;;;;;5018336;28;20436;-74
2021/04/29 08:46:11;;;;;;;22.67;18.67;;;461.00;2048.00;;;;;;5036147;28;20374;-75
2021/04/29 08:48:42;;;;;;;22.15;17.80;;;461.00;2022.40;;;;;;5018262;28;20422;-74
2021/04/29 08:51:11;;;;;;;21.85;19.15;;;461.00;2022.40;;;;;;5018383;28;20029;-76
2021/04/29 08:53:38;;;;;;;25.63;19.58;;;461.20;2022.40;;;;;;5036416;28;20469;-78
2021/04/29 08:56:05;;;;;;;22.70;17.63;;;461.20;2022.40;;;;;;5036300;28;20486;-78
2021/04/29 08:58:31;;;;;;;32.85;22.52;;;461.40;1996.80;;;;;;5036316;28;20393;-79
2021/04/29 09:01:03;;;;;;;22.80;18.50;;;461.50;1971.20;;;;;;5019096;28;20392;-77
2021/04/29 09:03:31;;;;;;;30.70;23.70;;;461.60;1945.60;;;;;;5035947;28;20370;-76
2021/04/29 09:06:03;;;;;;;23.48;17.15;;;461.70;1971.20;;;;;;5035941;28;20434;-73
2021/04/29 09:08:31;;;;;;;22.35;16.65;;;486.40;1945.60;;;;;;5036211;28;20446;-72
2021/04/29 09:11:08;;;;;;;21.70;17.48;;;486.70;1920.00;;;;;;5035780;28;20436;-75
2021/04/29 09:13:35;;;;;;;24.67;16.88;;;486.60;1920.00;;;;;;5035746;28;20470;-74
2021/04/29 09:16:10;;;;;;;24.48;17.27;;;486.70;1894.40;;;;;;5035737;28;20359;-73
2021/04/29 09:18:37;;;;;;;19.13;15.65;;;486.80;1920.00;;;;;;5035773;28;20409;-73
2021/04/29 09:21:07;;;;;;;22.90;17.10;;;486.80;1868.80;;;;;;5017937;28;20535;-72
2021/04/29 09:23:40;;;;;;;20.88;17.48;;;486.90;1894.40;;;;;;5017953;28;20416;-77
2021/04/29 09:26:12;;;;;;;22.88;18.13;;;486.90;1868.80;;;;;;5017825;28;20524;-78
2021/04/29 09:28:53;;;;;;;22.00;16.92;;;487.00;1868.80;;;;;;5051884;28;20405;-76
2021/04/29 09:31:22;;;;;;;20.08;16.33;;;487.10;1868.80;;;;;;5054557;28;20461;-77
2021/04/29 09:33:56;;;;;;;17.98;14.70;;;487.10;1843.20;;;;;;5055257;28;20389;-74
2021/04/29 09:36:29;;;;;;;21.95;15.82;;;487.20;1843.20;;;;;;5054011;28;20422;-77
2021/04/29 09:39:00;;;;;;;18.65;15.25;;;487.20;1843.20;;;;;;5055425;28;20343;-75
2021/04/29 09:41:32;;;;;;;21.50;17.10;;;487.20;1843.20;;;;;;5055456;28;20411;-74
2021/04/29 09:44:01;;;;;;;22.15;16.88;;;487.20;1843.20;;;;;;5053925;28;20397;-76
2021/04/29 09:46:46;;;;;;;16.90;14.65;;;487.20;1843.20;;;;;;5055595;28;20525;-78
2021/04/29 09:49:22;;;;;;;17.77;13.00;;;487.30;1843.20;;;;;;5055187;28;20377;-77
2021/04/29 09:51:48;;;;;;;16.52;13.30;;;487.30;1843.20;;;;;;5055064;28;20434;-76
2021/04/29 09:54:32;;;;;;;16.17;12.38;;;512.00;1843.20;;;;;;5053608;28;20447;-75
2021/04/29 09:57:10;;;;;;;14.52;12.98;;;512.00;1817.60;;;;;;5055110;28;20461;-75
2021/04/29 09:59:42;;;;;;;21.92;19.10;;;512.10;1817.60;;;;;;5053828;28;20462;-79
2021/04/29 10:02:14;;;;;;;18.38;12.85;;;512.20;1817.60;;;;;;5055175;28;20442;-75
2021/04/29 10:04:42;;;;;;;14.32;9.80;;;512.30;1817.60;;;;;;5054983;28;20408;-75
2021/04/29 10:07:09;;;;;;;14.88;10.18;;;512.30;1766.40;;;;;;5054683;28;20370;-72
2021/04/29 10:09:36;;;;;;;13.80;10.52;;;512.30;1766.40;;;;;;5054785;28;20396;-73
2021/04/29 10:12:11;;;;;;;14.18;11.40;;;512.40;1792.00;;;;;;5055039;28;20362;-73
2021/04/29 10:14:48;;;;;;;15.57;11.85;;;512.50;1817.60;;;;;;5054824;28;20343;-78
2021/04/29 10:17:17;;;;;;;17.25;11.93;;;512.70;1766.40;;;;;;5054275;28;20358;-73
2021/04/29 10:19:45;;;;;;;14.50;9.32;;;512.80;1817.60;;;;;;5054388;28;20342;-73
2021/04/29 10:22:12;;;;;;;19.63;11.30;;;537.60;1740.80;;;;;;5054768;28;20401;-73
2021/04/29 10:24:48;;;;;;;19.35;13.20;;;537.60;1740.80;;;;;;5054503;28;20353;-75
2021/04/29 10:27:25;;;;;;;15.30;10.32;;;537.60;1766.40;;;;;;5052920;28;20444;-78
2021/04/29 10:30:06;;;;;;;15.85;11.57;;;537.60;1792.00;;;;;;5054352;28;20439;-76
2021/04/29 10:32:34;;;;;;;18.17;12.80;;;537.70;1740.80;;;;;;5054289;28;20412;-74
2021/04/29 10:35:12;;;;;;;19.67;14.10;;;537.60;1740.80;;;;;;5054197;28;20366;-77
2021/04/29 10:37:38;;;;;;;19.52;15.15;;;537.60;1792.00;;;;;;5054408;28;20327;-76
2021/04/29 10:40:06;;;;;;;24.08;15.82;;;537.60;1792.00;;;;;;5052495;28;20021;-78
2021/04/29 10:42:44;;;;;;;22.45;14.90;;;537.60;1792.00;;;;;;5054136;28;20342;-75
2021/04/29 10:45:12;;;;;;;11.25;6.40;;;537.70;1792.00;;;;;;5052689;28;20359;-77
2021/04/29 10:47:40;;;;;;;14.45;7.20;;;537.80;1664.00;;;;;;5053992;28;20448;-77
2021/04/29 10:50:17;;;;;;;14.30;7.18;;;537.90;1664.00;;;;;;5054251;28;20381;-79
2021/04/29 10:52:57;;;;;;;12.35;9.13;;;538.00;1689.60;;;;;;5052664;28;20365;-74
2021/04/29 10:55:29;;;;;;;12.88;9.27;;;538.00;1664.00;;;;;;5052456;28;20036;-74
2021/04/29 10:57:56;;;;;;;9.50;5.80;;;538.00;1689.60;;;;;;5053866;28;20361;-78
2021/04/29 11:00:24;;;;;;;16.63;7.45;;;538.10;1638.40;;;;;;5053902;28;20419;-74
2021/04/29 11:03:06;;;;;;;14.77;8.93;;;538.30;1664.00;;;;;;5052781;28;20365;-74
2021/04/29 11:05:35;;;;;;;12.55;7.13;;;538.40;1664.00;;;;;;5053936;28;20369;-75
2021/04/29 11:08:09;;;;;;;11.95;8.20;;;538.50;1612.80;;;;;;5053600;28;20373;-76
2021/04/29 11:10:38;;;;;;;17.70;9.02;;;538.40;1664.00;;;;;;5052370;28;20028;-78
2021/04/29 11:13:07;;;;;;;11.68;7.82;;;538.30;1612.80;;;;;;5053612;28;20361;-79
2021/04/29 11:15:38;;;;;;;14.02;6.95;;;538.30;1638.40;;;;;;5052128;28;20385;-78
2021/04/29 11:18:04;;;;;;;8.68;5.47;;;538.40;1587.20;;;;;;5053480;28;20024;-77
2021/04/29 11:20:57;;;;;;;11.82;6.38;;;538.20;1561.60;;;;;;5052164;28;20027;-74
2021/04/29 11:23:28;;;;;;;12.88;7.45;;;538.30;1587.20;;;;;;5052100;28;20366;-74
2021/04/29 11:26:07;;;;;;;12.38;7.47;;;563.20;1664.00;;;;;;5053670;28;20366;-74
2021/04/29 11:28:34;;;;;;;10.13;5.38;;;563.30;1664.00;;;;;;5051876;28;20358;-75
2021/04/29 11:31:00;;;;;;;12.80;7.30;;;563.30;1587.20;;;;;;5053607;28;20331;-75
2021/04/29 11:33:49;;;;;;;13.23;8.38;;;563.20;1638.40;;;;;;5052036;28;20412;-75
2021/04/29 11:36:15;;;;;;;16.05;8.98;;;563.30;1638.40;;;;;;5053579;28;20371;-74
2021/04/29 11:38:59;;;;;;;10.55;6.32;;;563.60;1664.00;;;;;;5053250;28;20400;-77
2021/04/29 11:41:26;;;;;;;;;;;563.70;1612.80;;;;;;5053701;28;20361;-75
2021/04/29 11:44:03;;;;;;;9.88;4.88;;;563.70;1587.20;;;;;;5051949;28;20364;-78
2021/04/29 11:46:31;;;;;;;11.05;4.90;;;563.70;1561.60;;;;;;5053375;28;20366;-78
2021/04/29 11:49:08;;;;;;;13.15;4.60;;;563.70;1561.60;;;;;;5051938;28;20339;-76
2021/04/29 11:51:44;;;;;;;10.82;3.88;;;563.70;1561.60;;;;;;5053209;28;20073;-73
2021/04/29 11:54:12;;;;;;;10.40;3.92;;;563.80;1561.60;;;;;;5055860;28;20381;-75
2021/04/29 11:56:40;;;;;;;10.25;3.20;;;563.80;1510.40;;;;;;5055936;28;20027;-76
2021/04/29 11:59:08;;;;;;;9.77;3.97;;;563.80;1510.40;;;;;;5055867;28;20090;-75
2021/04/29 12:01:38;;;;;;;36.53;5.15;;;564.00;1536.00;;;;;;5055811;28;20370;-74
2021/04/29 12:04:19;;;;;;;11.13;3.10;;;564.00;1484.80;;;;;;5055811;28;20346;-75
2021/04/29 12:06:50;;;;;;;5.75;3.17;;;564.10;1510.40;;;;;;5055609;28;20369;-78
2021/04/29 12:09:21;;;;;;;15.55;4.50;;;564.10;1484.80;;;;;;5056849;28;20420;-80
2021/04/29 12:11:48;;;;;;;9.98;3.58;;;564.10;1510.40;;;;;;5055604;28;20428;-77